Terminal Aerodrome Forecast
Issued by NWS

Home | Current Version | Previous Version | Text Only | Print | Product List | Glossary On
Versions: 1 2 3 4 5 6 7 8 9 10 11 12 13 14 15 16 17
000
FTUS44 KLIX 301445 AAA
TAFHDC
TAF AMD
KHDC 301445Z 3015/0112 18025G35KT 2SM TSRA OVC007CB
     FM301600 24018G27KT 5SM -SHRA VCTS OVC030CB
     FM302000 30008KT 5SM -SHRA BKN060
     FM010000 27009KT P6SM BKN080
     FM010900 29004KT P6SM SKC=

USA.gov is the U.S. government's official web portal to all federal, state and local government web resources and services.